Time;durP1;ratioP1;P1;durP2;ratioP2;P2;SDS_P1;SDS_P2;PMS_P1;PMS_P2;Temp;Humidity;BMP_temperature;BMP_pressure;BME280_temperature;BME280_humidity;BME280_pressure;Samples;Min_cycle;Max_cycle;Signal;HPM_P1;HPM_P2
2023/08/09 00:00:45;;;;;;;2.13;0.90;;;19.10;76.20;;;;;;5051671;28;20052;-70
2023/08/09 00:03:49;;;;;;;2.25;0.90;;;19.10;76.40;;;;;;5034868;28;20040;-69
2023/08/09 00:06:54;;;;;;;2.63;0.90;;;19.10;76.40;;;;;;5039192;28;20044;-69
2023/08/09 00:09:58;;;;;;;2.10;1.00;;;19.10;77.70;;;;;;5050789;28;20053;-68
2023/08/09 00:13:03;;;;;;;2.75;1.05;;;18.90;76.80;;;;;;5043355;28;20036;-68
2023/08/09 00:16:08;;;;;;;3.92;0.85;;;18.80;78.60;;;;;;5051445;28;20420;-68
2023/08/09 00:19:13;;;;;;;6.60;1.13;;;18.70;78.10;;;;;;5051607;28;20056;-69
2023/08/09 00:22:18;;;;;;;2.85;0.98;;;18.50;78.50;;;;;;5051021;28;20399;-69
2023/08/09 00:25:22;;;;;;;2.70;0.85;;;18.40;78.50;;;;;;5043205;28;20364;-69
2023/08/09 00:28:26;;;;;;;2.33;0.70;;;18.40;78.30;;;;;;5043999;28;20051;-69
2023/08/09 00:31:30;;;;;;;2.33;0.63;;;18.30;78.10;;;;;;5039095;28;20048;-69
2023/08/09 00:34:35;;;;;;;1.38;0.70;;;18.20;78.10;;;;;;5051172;28;20400;-69
2023/08/09 00:37:39;;;;;;;1.42;0.90;;;18.00;78.40;;;;;;5051242;28;20047;-68
2023/08/09 00:40:43;;;;;;;1.88;0.93;;;18.00;78.90;;;;;;5051167;28;20503;-69
2023/08/09 00:43:48;;;;;;;1.83;0.90;;;17.90;80.20;;;;;;5050197;28;20055;-69
2023/08/09 00:46:52;;;;;;;2.40;1.17;;;17.90;81.50;;;;;;5038383;28;20051;-69
2023/08/09 00:49:56;;;;;;;3.35;1.10;;;17.90;82.40;;;;;;5050947;28;20052;-69
2023/08/09 00:53:02;;;;;;;3.10;1.40;;;17.90;83.20;;;;;;5050953;28;20060;-69
2023/08/09 00:56:07;;;;;;;9.32;1.20;;;17.90;83.90;;;;;;5038460;28;20048;-69
2023/08/09 00:59:11;;;;;;;3.75;1.00;;;17.90;83.80;;;;;;5049762;28;20516;-69
2023/08/09 01:02:16;;;;;;;3.35;1.23;;;17.80;84.70;;;;;;5038314;28;20499;-69
2023/08/09 01:05:23;;;;;;;5.05;1.00;;;17.80;85.30;;;;;;5049344;28;20020;-69
2023/08/09 01:08:39;;;;;;;1.63;1.13;;;17.80;87.30;;;;;;5058105;28;20048;-69
2023/08/09 01:11:57;;;;;;;2.03;1.20;;;17.70;88.40;;;;;;5071155;28;20031;-68
2023/08/09 01:15:04;;;;;;;4.15;1.30;;;17.60;88.90;;;;;;5057749;28;20071;-69
2023/08/09 01:18:09;;;;;;;4.03;1.20;;;17.50;90.00;;;;;;5070731;28;20387;-69
2023/08/09 01:21:13;;;;;;;2.55;1.52;;;17.40;90.70;;;;;;5058614;28;20051;-69
2023/08/09 01:24:18;;;;;;;8.00;1.27;;;17.30;91.30;;;;;;5070940;28;20047;-69
2023/08/09 01:27:23;;;;;;;3.65;1.35;;;17.20;92.00;;;;;;5041646;28;20048;-69
2023/08/09 01:30:27;;;;;;;4.13;1.35;;;17.20;92.40;;;;;;5070607;28;20055;-69
2023/08/09 01:33:32;;;;;;;3.35;1.00;;;17.10;93.40;;;;;;5070359;28;20540;-69
2023/08/09 01:36:37;;;;;;;4.13;1.55;;;17.10;93.60;;;;;;5057938;28;20051;-69
2023/08/09 01:39:42;;;;;;;6.10;1.90;;;17.00;94.20;;;;;;5070178;28;20048;-69
2023/08/09 01:42:48;;;;;;;4.07;1.40;;;16.90;95.00;;;;;;5070111;28;20047;-69
2023/08/09 01:45:53;;;;;;;3.00;1.35;;;16.80;95.70;;;;;;5070145;28;20040;-69
2023/08/09 01:49:11;;;;;;;6.13;1.50;;;16.70;96.80;;;;;;5070521;28;20059;-69
2023/08/09 01:52:15;;;;;;;6.72;1.63;;;16.70;97.60;;;;;;5069359;28;20044;-69
2023/08/09 01:55:20;;;;;;;5.93;1.20;;;16.70;98.50;;;;;;5070304;28;20517;-68
2023/08/09 01:58:24;;;;;;;3.60;1.30;;;16.70;99.20;;;;;;5070035;28;20039;-69
2023/08/09 02:01:28;;;;;;;3.58;1.40;;;16.60;99.40;;;;;;5070291;28;20502;-69
2023/08/09 02:04:33;;;;;;;2.28;1.30;;;16.60;99.90;;;;;;5073242;28;20047;-69
2023/08/09 02:07:37;;;;;;;4.40;1.60;;;16.60;99.90;;;;;;5073660;28;20490;-70
2023/08/09 02:11:00;;;;;;;2.60;1.23;;;16.60;99.90;;;;;;5073758;28;20119;-70
2023/08/09 02:14:23;;;;;;;4.30;1.50;;;16.60;99.90;;;;;;5073887;28;20052;-70
2023/08/09 02:17:27;;;;;;;2.47;1.17;;;16.60;99.60;;;;;;5061254;28;20533;-70
2023/08/09 02:20:32;;;;;;;4.35;1.33;;;16.60;98.60;;;;;;5061177;28;20071;-70
2023/08/09 02:23:38;;;;;;;6.25;1.50;;;16.70;99.00;;;;;;5072732;28;20048;-69
2023/08/09 02:30:24;;;;;;;2.08;1.17;;;16.60;99.90;;;;;;5061251;28;20051;-70
2023/08/09 02:33:46;;;;;;;4.57;1.33;;;16.50;99.90;;;;;;5073496;28;20537;-70
2023/08/09 02:36:53;;;;;;;2.28;1.20;;;16.50;99.90;;;;;;5061052;28;21291;-70
2023/08/09 02:43:20;;;;;;;2.28;1.13;;;16.40;99.90;;;;;;5060587;28;20486;-70
2023/08/09 02:46:24;;;;;;;3.25;1.20;;;16.40;99.90;;;;;;5073128;28;20056;-69
2023/08/09 02:49:28;;;;;;;3.15;1.38;;;16.50;99.90;;;;;;5060926;28;20043;-70
2023/08/09 02:52:32;;;;;;;3.40;1.50;;;16.40;99.90;;;;;;5060547;28;20051;-70
2023/08/09 02:55:36;;;;;;;4.68;1.70;;;16.40;99.90;;;;;;5073053;28;20048;-69
2023/08/09 02:58:40;;;;;;;6.05;1.33;;;16.30;99.90;;;;;;5072729;28;20047;-70
2023/08/09 03:12:34;;;;;;;2.75;1.30;;;16.00;99.90;;;;;;5071676;28;20047;-70
2023/08/09 03:15:39;;;;;;;5.45;1.60;;;16.00;99.90;;;;;;5060432;28;21087;-70
2023/08/09 03:18:45;;;;;;;3.13;1.35;;;15.90;99.90;;;;;;5072391;28;20044;-70
2023/08/09 03:21:50;;;;;;;3.53;1.52;;;16.00;99.90;;;;;;5060379;28;20048;-70
2023/08/09 03:24:54;;;;;;;2.67;1.23;;;16.00;99.90;;;;;;5060329;28;20035;-70
2023/08/09 03:27:58;;;;;;;6.40;1.40;;;16.10;99.90;;;;;;5059982;28;20345;-69
2023/08/09 03:31:22;;;;;;;2.83;1.50;;;16.10;99.90;;;;;;5060069;28;20055;-70
2023/08/09 03:34:27;;;;;;;2.65;1.42;;;16.20;99.90;;;;;;5059888;28;20047;-69
2023/08/09 03:37:35;;;;;;;3.67;1.30;;;16.20;99.90;;;;;;5059586;28;20047;-70
2023/08/09 03:44:40;;;;;;;3.67;1.50;;;16.20;99.90;;;;;;5072168;28;20043;-69
2023/08/09 03:51:27;;;;;;;4.15;1.77;;;16.20;99.90;;;;;;5059160;28;20048;-70
2023/08/09 03:57:54;;;;;;;2.50;1.42;;;16.10;99.90;;;;;;5071453;28;20059;-69
2023/08/09 04:04:58;;;;;;;4.88;1.55;;;16.10;99.90;;;;;;5061963;28;20051;-69
2023/08/09 04:08:03;;;;;;;5.43;1.42;;;16.10;99.90;;;;;;5071570;28;20090;-69
2023/08/09 04:11:07;;;;;;;5.22;1.42;;;16.00;99.90;;;;;;5071529;28;20046;-69
2023/08/09 04:14:11;;;;;;;4.28;2.10;;;15.90;99.90;;;;;;5071743;28;20055;-69
2023/08/09 04:21:16;;;;;;;5.93;1.98;;;15.80;99.90;;;;;;5071496;28;20056;-69
2023/08/09 04:24:57;;;;;;;4.90;1.77;;;15.70;99.90;;;;;;5071172;28;20059;-69
2023/08/09 04:28:02;;;;;;;4.07;1.55;;;15.60;99.90;;;;;;5071290;28;20044;-70
2023/08/09 04:31:06;;;;;;;4.15;1.50;;;15.60;99.90;;;;;;5071201;28;20051;-69
2023/08/09 04:34:09;;;;;;;7.05;2.03;;;15.60;99.90;;;;;;5071546;28;20051;-69
2023/08/09 04:37:32;;;;;;;9.00;1.80;;;15.70;99.90;;;;;;5070944;28;20048;-69
2023/08/09 04:41:14;;;;;;;4.15;1.50;;;15.70;99.90;;;;;;5070821;28;20052;-69
2023/08/09 04:44:18;;;;;;;7.10;1.60;;;15.70;99.90;;;;;;5071051;28;20467;-69
2023/08/09 04:47:22;;;;;;;5.15;1.60;;;15.80;99.90;;;;;;5070969;28;20503;-69
2023/08/09 04:50:26;;;;;;;6.30;1.70;;;15.80;99.90;;;;;;5070529;28;20532;-69
2023/08/09 04:54:08;;;;;;;5.55;1.73;;;15.90;99.90;;;;;;5071093;28;20482;-69
2023/08/09 04:57:12;;;;;;;6.25;1.80;;;16.00;99.90;;;;;;5058244;28;20043;-70
2023/08/09 05:00:16;;;;;;;6.25;1.95;;;16.00;99.90;;;;;;5070891;28;20501;-69
2023/08/09 05:03:20;;;;;;;7.32;1.70;;;16.10;99.90;;;;;;5070898;28;20493;-69
2023/08/09 05:06:24;;;;;;;10.15;2.00;;;16.10;99.90;;;;;;5070928;28;20051;-69
2023/08/09 05:09:29;;;;;;;5.03;1.40;;;16.30;99.90;;;;;;5070838;28;20044;-69
2023/08/09 05:12:33;;;;;;;8.65;1.92;;;18.60;99.90;;;;;;5062751;28;20047;-69
2023/08/09 05:15:37;;;;;;;8.65;1.40;;;20.80;99.90;;;;;;5050871;28;20051;-69
2023/08/09 05:18:41;;;;;;;10.15;1.80;;;22.80;99.90;;;;;;5051445;28;20692;-68
2023/08/09 05:25:26;;;;;;;2.17;1.35;;;23.30;96.00;;;;;;5050695;28;20052;-69
2023/08/09 05:28:30;;;;;;;3.95;1.45;;;24.00;95.90;;;;;;5050064;28;20040;-69
2023/08/09 05:31:34;;;;;;;3.08;1.42;;;22.70;96.10;;;;;;5050193;28;20044;-70
2023/08/09 05:34:38;;;;;;;3.30;1.45;;;24.00;95.70;;;;;;5050523;28;20044;-69
2023/08/09 05:38:01;;;;;;;5.97;1.70;;;24.90;94.30;;;;;;5051045;28;20052;-70
2023/08/09 05:41:24;;;;;;;5.30;1.90;;;26.10;93.20;;;;;;5053975;28;20036;-69
2023/08/09 05:45:24;;;;;;;5.55;1.75;;;27.40;91.80;;;;;;5054523;28;20040;-70
2023/08/09 05:48:28;;;;;;;5.97;1.45;;;27.20;90.50;;;;;;5065450;28;20035;-69
2023/08/09 05:54:55;;;;;;;5.43;2.17;;;26.20;90.90;;;;;;5070569;28;20040;-70
2023/08/09 05:57:58;;;;;;;3.78;1.80;;;26.20;90.90;;;;;;5083431;28;20051;-69
2023/08/09 06:01:06;;;;;;;2.78;1.50;;;26.80;90.60;;;;;;5085994;28;20070;-70
2023/08/09 06:04:10;;;;;;;4.10;1.63;;;27.60;90.10;;;;;;5073186;28;20054;-68
2023/08/09 06:07:14;;;;;;;3.78;1.55;;;28.60;88.30;;;;;;5084570;28;20210;-69
2023/08/09 06:10:20;;;;;;;5.55;1.65;;;29.00;87.90;;;;;;5093112;28;20618;-69
2023/08/09 06:13:24;;;;;;;2.75;1.33;;;28.30;86.20;;;;;;5065424;28;20039;-69
2023/08/09 06:16:28;;;;;;;4.82;1.42;;;28.80;87.40;;;;;;5081250;28;20043;-70
2023/08/09 06:19:33;;;;;;;2.78;1.40;;;27.30;87.50;;;;;;5083887;28;20051;-69
2023/08/09 06:22:37;;;;;;;4.90;1.58;;;26.80;88.40;;;;;;5060497;28;20047;-69
2023/08/09 06:25:41;;;;;;;2.58;1.33;;;26.50;89.10;;;;;;5080289;28;20047;-70
2023/08/09 06:29:04;;;;;;;7.00;2.00;;;27.10;88.50;;;;;;5075860;28;20039;-69
2023/08/09 06:32:08;;;;;;;5.30;1.70;;;26.10;89.10;;;;;;5053639;28;20059;-70
2023/08/09 06:35:12;;;;;;;3.80;1.98;;;24.80;90.50;;;;;;5029420;28;20051;-69
2023/08/09 06:38:34;;;;;;;3.13;1.38;;;25.20;90.60;;;;;;5074776;28;20051;-70
2023/08/09 06:41:39;;;;;;;3.33;1.60;;;25.50;90.40;;;;;;5078773;28;20052;-70
2023/08/09 06:44:43;;;;;;;3.28;1.38;;;25.80;90.20;;;;;;5073426;28;20056;-70
2023/08/09 06:51:27;;;;;;;4.30;1.83;;;25.10;90.00;;;;;;5083138;28;20040;-70
2023/08/09 06:54:50;;;;;;;6.55;1.25;;;26.00;87.00;;;;;;5093389;28;20051;-70
2023/08/09 06:57:54;;;;;;;3.47;1.50;;;26.30;86.70;;;;;;5093641;28;20490;-70
2023/08/09 07:00:58;;;;;;;2.38;1.25;;;26.20;87.60;;;;;;5093327;28;20047;-70
2023/08/09 07:04:02;;;;;;;2.28;1.23;;;26.80;86.30;;;;;;5093272;28;20051;-70
2023/08/09 07:07:06;;;;;;;7.72;1.70;;;28.30;85.10;;;;;;5071056;28;20036;-70
2023/08/09 07:10:11;;;;;;;2.08;1.38;;;29.10;83.00;;;;;;5072997;28;20051;-71
2023/08/09 07:13:35;;;;;;;5.20;1.40;;;28.70;82.80;;;;;;5072244;28;20414;-70
2023/08/09 07:16:39;;;;;;;5.82;1.70;;;29.60;80.90;;;;;;5073108;28;20039;-70
2023/08/09 07:23:24;;;;;;;5.50;1.38;;;32.50;78.80;;;;;;5071984;28;20055;-69
2023/08/09 07:30:11;;;;;;;3.17;1.27;;;33.50;76.40;;;;;;5072879;28;20048;-70
2023/08/09 07:33:15;;;;;;;8.73;1.73;;;33.60;75.10;;;;;;5067934;28;20478;-70
2023/08/09 07:36:19;;;;;;;4.03;1.30;;;34.40;74.40;;;;;;5061478;28;20048;-71
2023/08/09 07:39:25;;;;;;;2.67;1.13;;;34.80;72.20;;;;;;5052267;28;20043;-70
2023/08/09 07:42:29;;;;;;;3.45;1.23;;;35.00;71.60;;;;;;5068166;28;20040;-70
2023/08/09 07:45:52;;;;;;;3.45;1.30;;;35.10;71.90;;;;;;5069762;28;20048;-72
2023/08/09 07:48:56;;;;;;;3.30;1.58;;;36.00;70.60;;;;;;5065076;28;20482;-69
2023/08/09 07:52:20;;;;;;;4.20;1.38;;;36.10;70.20;;;;;;5070119;28;20043;-71
2023/08/09 07:56:01;;;;;;;3.88;1.10;;;36.00;69.90;;;;;;5052458;28;20044;-69
2023/08/09 07:59:05;;;;;;;2.97;1.35;;;36.40;68.90;;;;;;5063965;28;20051;-68
2023/08/09 08:02:28;;;;;;;3.42;1.42;;;36.70;70.00;;;;;;5069795;28;20048;-70
2023/08/09 08:05:51;;;;;;;2.72;1.00;;;37.10;68.30;;;;;;5066374;28;20486;-71
2023/08/09 08:09:14;;;;;;;5.63;1.60;;;37.30;68.20;;;;;;5068782;28;20041;-70
2023/08/09 08:16:20;;;;;;;2.17;1.05;;;37.10;66.10;;;;;;5059245;28;20040;-67
2023/08/09 08:19:23;;;;;;;5.72;1.27;;;35.90;66.80;;;;;;5056175;28;21090;-69
2023/08/09 08:22:28;;;;;;;6.43;1.73;;;35.90;67.40;;;;;;5063445;28;20423;-70
2023/08/09 08:25:33;;;;;;;7.10;1.67;;;36.00;66.90;;;;;;5068123;28;20032;-70
2023/08/09 08:28:37;;;;;;;2.10;1.10;;;35.80;67.60;;;;;;5064872;28;20051;-69
2023/08/09 08:31:42;;;;;;;3.88;1.23;;;34.90;66.90;;;;;;5067821;28;20047;-69
2023/08/09 08:38:28;;;;;;;3.28;0.95;;;34.60;68.90;;;;;;5052693;28;20044;-69
2023/08/09 08:41:34;;;;;;;3.88;1.35;;;34.90;66.90;;;;;;5066611;28;20044;-70
2023/08/09 08:44:38;;;;;;;4.65;1.00;;;37.00;66.50;;;;;;5065497;28;20036;-69
2023/08/09 08:51:09;;;;;;;6.60;1.40;;;38.30;63.90;;;;;;5066870;28;20044;-70
2023/08/09 08:54:15;;;;;;;3.17;1.25;;;37.20;65.00;;;;;;5069499;28;20035;-70
2023/08/09 08:57:20;;;;;;;4.05;1.40;;;38.10;63.90;;;;;;5063519;28;20047;-70
2023/08/09 09:00:24;;;;;;;4.47;1.30;;;37.80;63.30;;;;;;5070831;28;20051;-71
2023/08/09 09:03:27;;;;;;;2.33;1.08;;;38.70;63.40;;;;;;5056944;28;20036;-69
2023/08/09 09:06:52;;;;;;;2.80;1.00;;;39.50;63.40;;;;;;5055150;28;20047;-70
2023/08/09 09:10:15;;;;;;;1.30;0.80;;;40.20;62.00;;;;;;5062169;28;20380;-70
2023/08/09 09:13:24;;;;;;;3.28;0.95;;;41.50;60.70;;;;;;5055525;28;20039;-70
2023/08/09 09:16:49;;;;;;;2.63;1.00;;;42.60;58.80;;;;;;5067693;28;20047;-71
2023/08/09 09:19:54;;;;;;;2.88;1.20;;;43.70;56.40;;;;;;5061636;28;20039;-70
2023/08/09 09:22:59;;;;;;;1.65;0.82;;;44.50;54.60;;;;;;5042390;28;20051;-70
2023/08/09 09:26:51;;;;;;;2.33;1.00;;;43.00;55.60;;;;;;5070194;28;20392;-69
2023/08/09 09:33:37;;;;;;;1.77;0.80;;;39.70;56.20;;;;;;5062598;28;20051;-70
2023/08/09 09:40:10;;;;;;;3.33;1.00;;;39.00;55.10;;;;;;5064660;28;20372;-72
2023/08/09 09:43:15;;;;;;;3.78;0.93;;;40.10;54.80;;;;;;5068670;28;20514;-73
2023/08/09 09:46:28;;;;;;;3.83;0.90;;;38.70;53.30;;;;;;5059050;28;20052;-72
2023/08/09 09:49:35;;;;;;;3.45;0.90;;;39.90;54.90;;;;;;5063743;28;20117;-71
2023/08/09 09:56:19;;;;;;;3.47;0.90;;;41.30;54.60;;;;;;5059092;28;20048;-71
2023/08/09 09:59:23;;;;;;;3.70;0.98;;;43.80;53.90;;;;;;5055143;28;20395;-70
2023/08/09 10:03:05;;;;;;;4.43;0.90;;;44.70;53.40;;;;;;5056923;28;20039;-69
2023/08/09 10:06:14;;;;;;;2.58;0.93;;;45.90;53.10;;;;;;5067693;28;20055;-68
2023/08/09 10:09:18;;;;;;;3.10;1.20;;;47.10;52.80;;;;;;5069133;28;20048;-69
2023/08/09 10:12:23;;;;;;;1.50;0.63;;;47.10;52.40;;;;;;5064024;28;20630;-70
2023/08/09 10:15:56;;;;;;;1.40;0.90;;;46.10;52.60;;;;;;5054510;28;20047;-70
2023/08/09 10:19:07;;;;;;;3.53;0.90;;;44.30;52.90;;;;;;5067138;28;20048;-71
2023/08/09 10:26:11;;;;;;;1.88;1.00;;;46.30;53.30;;;;;;5053692;28;20067;-69
2023/08/09 10:29:21;;;;;;;3.53;0.90;;;46.50;53.10;;;;;;5060332;28;20117;-70
2023/08/09 10:32:52;;;;;;;3.22;0.77;;;47.30;52.30;;;;;;5065115;28;20048;-69
2023/08/09 10:35:56;;;;;;;4.03;1.20;;;48.30;51.30;;;;;;5069151;28;20040;-69
2023/08/09 10:39:19;;;;;;;1.73;1.23;;;47.40;51.30;;;;;;5072757;28;20032;-70
2023/08/09 10:42:23;;;;;;;4.47;1.00;;;47.20;52.10;;;;;;5065268;28;20043;-71
2023/08/09 10:45:31;;;;;;;4.25;0.93;;;47.60;52.10;;;;;;5073181;28;20043;-70
2023/08/09 10:48:48;;;;;;;5.18;1.05;;;47.40;51.70;;;;;;5057224;28;20055;-70
2023/08/09 10:52:13;;;;;;;2.67;0.85;;;48.00;51.20;;;;;;5071912;28;20475;-71
2023/08/09 10:55:25;;;;;;;3.45;1.10;;;48.70;50.20;;;;;;5072530;28;20062;-71
2023/08/09 10:58:29;;;;;;;3.28;1.20;;;47.00;50.40;;;;;;5067086;28;20043;-70
2023/08/09 11:01:35;;;;;;;2.80;1.10;;;47.40;49.80;;;;;;5072623;28;20127;-70
2023/08/09 11:04:58;;;;;;;2.38;1.05;;;46.80;48.80;;;;;;5068794;28;20517;-70
2023/08/09 11:08:09;;;;;;;5.53;1.60;;;46.20;50.20;;;;;;5072384;28;20039;-71
2023/08/09 11:11:14;;;;;;;2.60;1.33;;;47.20;49.30;;;;;;5071949;28;20044;-71
2023/08/09 11:14:37;;;;;;;2.03;1.30;;;48.40;47.80;;;;;;5070914;28;20071;-71
2023/08/09 11:21:11;;;;;;;3.65;1.27;;;46.30;48.20;;;;;;5070524;28;20490;-70
2023/08/09 11:24:17;;;;;;;3.38;1.33;;;46.60;47.90;;;;;;5071251;28;21375;-70
2023/08/09 11:27:21;;;;;;;1.83;1.50;;;47.60;46.90;;;;;;5062013;28;20039;-71
2023/08/09 11:30:28;;;;;;;3.28;1.40;;;47.40;44.60;;;;;;5065058;28;20044;-70
2023/08/09 11:33:32;;;;;;;2.83;1.73;;;47.40;43.20;;;;;;5068655;28;20048;-69
2023/08/09 11:36:55;;;;;;;3.85;1.70;;;47.00;44.20;;;;;;5071842;28;20067;-70
2023/08/09 11:39:59;;;;;;;2.28;1.40;;;47.70;45.00;;;;;;5071429;28;20047;-70
2023/08/09 11:43:22;;;;;;;3.10;1.40;;;47.60;44.50;;;;;;5070968;28;20043;-70
2023/08/09 11:46:26;;;;;;;2.97;1.40;;;46.40;45.80;;;;;;5067799;28;20486;-69
2023/08/09 11:49:49;;;;;;;5.05;1.42;;;46.40;46.40;;;;;;5070809;28;20047;-70
2023/08/09 11:52:54;;;;;;;2.97;1.70;;;46.50;45.80;;;;;;5066578;28;20044;-69
2023/08/09 11:56:07;;;;;;;4.00;1.50;;;46.40;45.00;;;;;;5070800;28;20052;-70
2023/08/09 11:59:17;;;;;;;2.00;1.33;;;46.30;44.70;;;;;;5067461;28;20040;-70
2023/08/09 12:02:27;;;;;;;5.03;2.10;;;46.60;44.80;;;;;;5050990;28;20399;-71
2023/08/09 12:05:31;;;;;;;3.10;1.50;;;46.80;43.70;;;;;;5064470;28;20055;-69
2023/08/09 12:08:36;;;;;;;2.95;1.30;;;45.10;44.20;;;;;;5070068;28;20039;-70
2023/08/09 12:12:20;;;;;;;3.42;1.55;;;44.80;46.10;;;;;;5066414;28;20047;-69
2023/08/09 12:16:06;;;;;;;5.30;1.80;;;44.90;46.50;;;;;;5051091;28;20043;-70
2023/08/09 12:19:10;;;;;;;3.28;1.70;;;44.80;46.20;;;;;;5068016;28;20059;-70
2023/08/09 12:22:33;;;;;;;2.55;1.70;;;43.70;46.50;;;;;;5070796;28;20060;-69
2023/08/09 12:25:38;;;;;;;4.28;1.70;;;43.40;47.70;;;;;;5067793;28;20052;-70
2023/08/09 12:28:42;;;;;;;7.78;1.55;;;44.00;47.90;;;;;;5065807;28;20494;-70
2023/08/09 12:31:46;;;;;;;3.22;1.52;;;44.50;47.20;;;;;;5071004;28;20047;-69
2023/08/09 12:34:51;;;;;;;3.95;1.50;;;44.40;48.10;;;;;;5070940;28;20043;-70
2023/08/09 12:37:55;;;;;;;2.42;1.48;;;44.10;47.50;;;;;;5054100;28;20047;-70
2023/08/09 12:40:59;;;;;;;3.30;1.50;;;44.00;48.00;;;;;;5068299;28;20390;-70
2023/08/09 12:44:23;;;;;;;4.25;1.73;;;43.50;48.20;;;;;;5066680;28;20047;-71
2023/08/09 12:47:47;;;;;;;1.98;1.23;;;43.30;49.00;;;;;;5063844;28;20043;-69
2023/08/09 12:50:51;;;;;;;5.32;1.40;;;43.30;48.00;;;;;;5068878;28;20330;-69
2023/08/09 12:53:56;;;;;;;6.47;1.60;;;43.00;47.90;;;;;;5067234;28;20051;-68
2023/08/09 12:57:18;;;;;;;3.22;1.50;;;42.40;49.20;;;;;;5060599;28;20544;-69
2023/08/09 13:00:22;;;;;;;2.63;1.20;;;42.20;49.40;;;;;;5064872;28;20063;-69
2023/08/09 13:03:26;;;;;;;1.95;1.30;;;42.20;50.20;;;;;;5068176;28;20388;-69
2023/08/09 13:06:30;;;;;;;2.65;1.42;;;41.50;50.20;;;;;;5068151;28;20051;-71
2023/08/09 13:09:36;;;;;;;4.53;1.33;;;39.40;52.00;;;;;;5064531;28;20039;-70
2023/08/09 13:12:40;;;;;;;6.80;1.73;;;39.50;52.70;;;;;;5070468;28;20115;-70
2023/08/09 13:15:44;;;;;;;5.07;1.20;;;37.00;52.60;;;;;;5051435;28;20056;-70
2023/08/09 13:19:25;;;;;;;4.43;1.20;;;34.00;55.70;;;;;;5050239;28;20399;-69
2023/08/09 13:22:29;;;;;;;5.65;1.40;;;34.70;56.80;;;;;;5060694;28;20043;-69
2023/08/09 13:25:51;;;;;;;2.83;1.58;;;35.10;58.00;;;;;;5062819;28;20051;-70
2023/08/09 13:29:14;;;;;;;6.25;1.60;;;35.30;56.00;;;;;;5061833;28;20044;-70
2023/08/09 13:32:37;;;;;;;3.45;1.45;;;35.00;56.50;;;;;;5065609;28;20044;-70
2023/08/09 13:35:42;;;;;;;3.05;1.27;;;34.80;55.50;;;;;;5069277;28;20063;-69
2023/08/09 13:39:04;;;;;;;2.78;1.30;;;34.70;56.70;;;;;;5070037;28;20048;-70
2023/08/09 13:42:27;;;;;;;2.80;1.50;;;35.50;57.50;;;;;;5069396;28;20042;-70
2023/08/09 13:45:31;;;;;;;4.45;1.60;;;34.70;57.30;;;;;;5051805;28;20383;-70
2023/08/09 13:48:35;;;;;;;3.65;1.52;;;34.10;58.20;;;;;;5066280;28;20043;-71
2023/08/09 13:51:39;;;;;;;4.30;1.60;;;34.90;58.30;;;;;;5063076;28;20487;-70
2023/08/09 14:02:07;;;;;;;4.22;1.45;;;35.90;56.60;;;;;;5070582;28;20498;-72
2023/08/09 14:08:53;;;;;;;4.22;1.50;;;31.60;63.30;;;;;;5068735;28;20035;-72
2023/08/09 14:11:58;;;;;;;3.33;1.55;;;33.00;61.80;;;;;;5068712;28;20044;-71
2023/08/09 14:18:26;;;;;;;4.60;1.45;;;34.30;59.00;;;;;;5070019;28;20043;-70
2023/08/09 14:21:49;;;;;;;4.80;1.48;;;34.30;60.00;;;;;;5073116;28;20043;-70
2023/08/09 14:24:53;;;;;;;4.20;1.60;;;34.10;59.70;;;;;;5073536;28;20050;-71
2023/08/09 14:31:38;;;;;;;6.28;1.27;;;31.40;63.60;;;;;;5073394;28;20051;-70
2023/08/09 14:34:42;;;;;;;5.55;1.50;;;32.40;62.00;;;;;;5073549;28;20366;-71
2023/08/09 14:37:46;;;;;;;4.22;1.40;;;33.20;61.60;;;;;;5073191;28;20043;-72
2023/08/09 14:40:50;;;;;;;4.28;1.35;;;33.60;60.90;;;;;;5072695;28;20051;-71
2023/08/09 14:43:54;;;;;;;4.68;1.50;;;33.20;59.00;;;;;;5073471;28;20055;-70
2023/08/09 14:46:59;;;;;;;4.10;1.92;;;33.40;61.10;;;;;;5073552;28;20040;-71
2023/08/09 14:50:04;;;;;;;6.18;2.10;;;33.40;61.60;;;;;;5072820;28;20514;-72
2023/08/09 14:53:08;;;;;;;3.03;1.15;;;33.20;61.20;;;;;;5073201;28;20047;-72
2023/08/09 14:56:12;;;;;;;3.53;1.73;;;33.00;60.80;;;;;;5073245;28;20055;-72
2023/08/09 14:59:16;;;;;;;3.03;1.50;;;32.80;60.80;;;;;;5073354;28;20052;-71
2023/08/09 15:02:21;;;;;;;4.55;1.55;;;32.30;61.50;;;;;;5072702;28;20044;-70
2023/08/09 15:05:25;;;;;;;5.53;1.45;;;32.30;61.80;;;;;;5073136;28;20036;-70
2023/08/09 15:08:30;;;;;;;3.13;1.77;;;32.50;64.20;;;;;;5072747;28;20409;-72
2023/08/09 15:11:33;;;;;;;3.92;1.42;;;31.20;63.50;;;;;;5070391;28;20051;-70
2023/08/09 15:14:37;;;;;;;19.38;12.80;;;31.50;62.90;;;;;;5066629;28;20047;-71
2023/08/09 15:17:41;;;;;;;8.80;2.50;;;31.90;64.30;;;;;;5072988;28;20052;-71
2023/08/09 15:24:46;;;;;;;8.10;1.65;;;32.20;62.20;;;;;;5073047;28;20051;-70
2023/08/09 15:28:09;;;;;;;4.45;1.60;;;31.80;62.70;;;;;;5072237;28;20059;-72
2023/08/09 15:35:13;;;;;;;3.63;1.58;;;31.10;63.70;;;;;;5072662;28;20063;-73
2023/08/09 15:38:18;;;;;;;5.22;1.98;;;31.30;64.80;;;;;;5072267;28;20478;-71
2023/08/09 15:41:22;;;;;;;3.63;1.55;;;31.60;64.60;;;;;;5071785;28;20039;-72
2023/08/09 15:44:45;;;;;;;3.88;1.55;;;31.70;64.70;;;;;;5072119;28;20039;-70
2023/08/09 15:47:49;;;;;;;5.35;1.85;;;31.80;64.80;;;;;;5072247;28;20043;-71
2023/08/09 15:50:53;;;;;;;5.82;1.70;;;31.10;64.30;;;;;;5072216;28;20055;-71
2023/08/09 15:53:57;;;;;;;4.10;1.58;;;31.40;64.90;;;;;;5071847;28;20075;-71
2023/08/09 15:57:02;;;;;;;3.85;1.85;;;31.60;65.70;;;;;;5071665;28;20391;-71
2023/08/09 16:00:06;;;;;;;5.57;1.73;;;31.60;65.10;;;;;;5071716;28;20035;-71
2023/08/09 16:03:10;;;;;;;6.53;2.10;;;31.50;65.40;;;;;;5071480;28;20098;-71
2023/08/09 16:10:14;;;;;;;5.32;2.05;;;31.00;66.80;;;;;;5071624;28;20036;-72
2023/08/09 16:13:36;;;;;;;6.13;2.00;;;30.90;67.50;;;;;;5071084;28;20067;-72
2023/08/09 16:16:40;;;;;;;5.55;2.05;;;30.90;67.80;;;;;;5071152;28;20047;-71
2023/08/09 16:19:44;;;;;;;4.30;2.28;;;30.60;68.60;;;;;;5070558;28;20047;-69
2023/08/09 16:22:48;;;;;;;5.25;2.10;;;30.40;69.00;;;;;;5071163;28;20047;-70
2023/08/09 16:26:11;;;;;;;9.93;1.98;;;30.20;70.90;;;;;;5070239;28;20071;-70
2023/08/09 16:29:15;;;;;;;5.53;1.95;;;29.90;71.20;;;;;;5062182;28;20048;-72
2023/08/09 16:32:38;;;;;;;8.77;2.30;;;29.80;71.40;;;;;;5070690;28;20063;-70
2023/08/09 16:35:42;;;;;;;9.63;2.67;;;29.70;71.90;;;;;;5071023;28;20106;-70
2023/08/09 16:38:51;;;;;;;7.45;1.98;;;29.50;72.00;;;;;;5070851;28;20040;-69
2023/08/09 16:41:55;;;;;;;5.80;2.10;;;29.20;72.90;;;;;;5070840;28;20047;-70
2023/08/09 16:45:19;;;;;;;8.18;2.78;;;29.00;72.50;;;;;;5071162;28;20376;-72
2023/08/09 16:48:23;;;;;;;6.25;1.80;;;28.80;74.10;;;;;;5059172;28;20043;-69
2023/08/09 16:51:28;;;;;;;5.18;2.10;;;28.60;74.60;;;;;;5070539;28;20410;-70
2023/08/09 16:54:32;;;;;;;10.35;2.10;;;28.50;75.20;;;;;;5071207;28;20059;-70
2023/08/09 16:57:36;;;;;;;8.70;2.30;;;28.40;75.90;;;;;;5071165;28;20394;-71
2023/08/09 17:00:40;;;;;;;9.13;1.90;;;28.20;76.50;;;;;;5071202;28;20048;-71
2023/08/09 17:04:03;;;;;;;5.40;2.55;;;28.10;76.40;;;;;;5070937;28;20039;-71
2023/08/09 17:07:10;;;;;;;6.80;2.08;;;28.00;77.40;;;;;;5058395;28;20036;-72
2023/08/09 17:10:14;;;;;;;4.90;2.08;;;27.90;76.60;;;;;;5071004;28;20422;-71
2023/08/09 17:13:37;;;;;;;3.90;2.10;;;27.80;77.30;;;;;;5071117;28;20486;-71
2023/08/09 17:20:04;;;;;;;3.30;1.60;;;27.50;76.60;;;;;;5070567;28;20052;-71
2023/08/09 17:23:27;;;;;;;6.38;1.92;;;27.50;77.10;;;;;;5058162;28;20494;-70
2023/08/09 17:26:49;;;;;;;5.90;1.85;;;27.40;77.40;;;;;;5070485;28;20067;-72
2023/08/09 17:29:53;;;;;;;7.75;2.47;;;27.40;77.50;;;;;;5058251;28;20040;-71
2023/08/09 17:32:57;;;;;;;5.75;2.88;;;27.30;77.40;;;;;;5072183;28;20396;-71
2023/08/09 17:36:03;;;;;;;6.65;2.13;;;27.10;76.80;;;;;;5075398;28;20075;-71
2023/08/09 17:39:07;;;;;;;7.25;2.13;;;26.90;77.10;;;;;;5074578;28;20399;-70
2023/08/09 17:42:30;;;;;;;3.97;2.10;;;26.80;77.10;;;;;;5060022;28;20538;-71
2023/08/09 17:45:34;;;;;;;5.43;2.38;;;26.60;76.30;;;;;;5068008;28;20043;-70
2023/08/09 17:48:39;;;;;;;8.00;1.92;;;26.50;75.90;;;;;;5062224;28;20391;-71
2023/08/09 17:51:43;;;;;;;6.00;1.90;;;26.40;76.90;;;;;;5073792;28;20052;-71
2023/08/09 17:54:47;;;;;;;5.70;2.47;;;26.30;76.60;;;;;;5074470;28;20394;-70
2023/08/09 17:57:50;;;;;;;7.55;2.35;;;26.10;77.40;;;;;;5074306;28;20043;-71
2023/08/09 18:00:54;;;;;;;6.60;2.17;;;26.00;76.80;;;;;;5074155;28;20215;-71
2023/08/09 18:04:17;;;;;;;14.63;2.33;;;25.90;76.10;;;;;;5074097;28;20115;-69
2023/08/09 18:07:40;;;;;;;6.20;2.17;;;25.70;76.10;;;;;;5073892;28;20039;-71
2023/08/09 18:11:03;;;;;;;6.75;2.22;;;25.60;76.60;;;;;;5074297;28;20032;-69
2023/08/09 18:14:11;;;;;;;4.57;1.88;;;25.50;76.70;;;;;;5073852;28;20043;-69
2023/08/09 18:17:16;;;;;;;6.70;1.75;;;25.30;76.90;;;;;;5061798;28;20044;-69
2023/08/09 18:20:20;;;;;;;7.03;1.90;;;25.20;77.30;;;;;;5073213;28;20047;-69